sensor_id;sensor_type;location;lat;lon;timestamp;temperature;humidity
11840;DHT22;5979;50.800;4.904;2022-11-28T00:01:42;8.80;99.90
11840;DHT22;5979;50.800;4.904;2022-11-28T00:04:08;8.70;99.90
11840;DHT22;5979;50.800;4.904;2022-11-28T00:06:39;8.80;99.90
11840;DHT22;5979;50.800;4.904;2022-11-28T00:09:06;8.80;99.90
11840;DHT22;5979;50.800;4.904;2022-11-28T00:11:32;8.80;99.90
11840;DHT22;5979;50.800;4.904;2022-11-28T00:13:58;8.80;99.90
11840;DHT22;5979;50.800;4.904;2022-11-28T00:16:24;8.80;99.90
11840;DHT22;5979;50.800;4.904;2022-11-28T00:18:52;8.80;99.90
11840;DHT22;5979;50.800;4.904;2022-11-28T00:21:18;8.80;99.90
11840;DHT22;5979;50.800;4.904;2022-11-28T00:23:45;8.80;99.90
11840;DHT22;5979;50.800;4.904;2022-11-28T00:26:24;8.90;99.90
11840;DHT22;5979;50.800;4.904;2022-11-28T00:28:50;8.90;99.90
11840;DHT22;5979;50.800;4.904;2022-11-28T00:31:22;8.90;99.90
11840;DHT22;5979;50.800;4.904;2022-11-28T00:33:47;8.90;99.90
11840;DHT22;5979;50.800;4.904;2022-11-28T00:36:14;8.90;99.90
11840;DHT22;5979;50.800;4.904;2022-11-28T00:38:40;8.90;99.90
11840;DHT22;5979;50.800;4.904;2022-11-28T00:41:14;9.00;99.90
11840;DHT22;5979;50.800;4.904;2022-11-28T00:43:41;9.00;99.90
11840;DHT22;5979;50.800;4.904;2022-11-28T00:46:08;9.00;99.90
11840;DHT22;5979;50.800;4.904;2022-11-28T00:48:34;9.00;99.90
11840;DHT22;5979;50.800;4.904;2022-11-28T00:51:09;9.00;99.90
11840;DHT22;5979;50.800;4.904;2022-11-28T00:53:35;9.00;99.90
11840;DHT22;5979;50.800;4.904;2022-11-28T00:56:05;8.90;99.90
11840;DHT22;5979;50.800;4.904;2022-11-28T00:58:33;8.90;99.90
11840;DHT22;5979;50.800;4.904;2022-11-28T01:01:05;8.90;99.90
11840;DHT22;5979;50.800;4.904;2022-11-28T01:03:31;8.90;99.90
11840;DHT22;5979;50.800;4.904;2022-11-28T01:05:56;8.90;99.90
11840;DHT22;5979;50.800;4.904;2022-11-28T01:08:22;8.90;99.90
11840;DHT22;5979;50.800;4.904;2022-11-28T01:10:47;8.90;99.90
11840;DHT22;5979;50.800;4.904;2022-11-28T01:13:13;8.90;99.90
11840;DHT22;5979;50.800;4.904;2022-11-28T01:15:41;8.90;99.90
11840;DHT22;5979;50.800;4.904;2022-11-28T01:18:07;8.80;99.90
11840;DHT22;5979;50.800;4.904;2022-11-28T01:20:32;8.80;99.90
11840;DHT22;5979;50.800;4.904;2022-11-28T01:22:58;8.80;99.90
11840;DHT22;5979;50.800;4.904;2022-11-28T01:25:24;8.80;99.90
11840;DHT22;5979;50.800;4.904;2022-11-28T01:27:49;8.80;99.90
11840;DHT22;5979;50.800;4.904;2022-11-28T01:30:15;8.80;99.90
11840;DHT22;5979;50.800;4.904;2022-11-28T01:32:41;8.80;99.90
11840;DHT22;5979;50.800;4.904;2022-11-28T01:35:07;8.80;99.90
11840;DHT22;5979;50.800;4.904;2022-11-28T01:37:33;8.80;99.90
11840;DHT22;5979;50.800;4.904;2022-11-28T01:39:59;8.70;99.90
11840;DHT22;5979;50.800;4.904;2022-11-28T01:42:24;8.70;99.90
11840;DHT22;5979;50.800;4.904;2022-11-28T01:47:29;8.70;99.90
11840;DHT22;5979;50.800;4.904;2022-11-28T01:49:55;8.70;99.90
11840;DHT22;5979;50.800;4.904;2022-11-28T01:52:21;8.70;99.90
11840;DHT22;5979;50.800;4.904;2022-11-28T01:54:51;8.70;99.90
11840;DHT22;5979;50.800;4.904;2022-11-28T01:57:21;8.70;99.90
11840;DHT22;5979;50.800;4.904;2022-11-28T02:00:12;8.70;99.90
11840;DHT22;5979;50.800;4.904;2022-11-28T02:05:12;8.70;99.90
11840;DHT22;5979;50.800;4.904;2022-11-28T02:07:39;8.70;99.90
11840;DHT22;5979;50.800;4.904;2022-11-28T02:10:10;8.60;99.90
11840;DHT22;5979;50.800;4.904;2022-11-28T02:12:44;8.60;99.90
11840;DHT22;5979;50.800;4.904;2022-11-28T02:15:38;8.60;99.90
11840;DHT22;5979;50.800;4.904;2022-11-28T02:40:15;8.40;99.90
11840;DHT22;5979;50.800;4.904;2022-11-28T02:43:04;8.40;99.90
11840;DHT22;5979;50.800;4.904;2022-11-28T02:45:55;8.40;99.90
11840;DHT22;5979;50.800;4.904;2022-11-28T02:48:24;8.40;99.90
11840;DHT22;5979;50.800;4.904;2022-11-28T02:51:13;8.40;99.90
11840;DHT22;5979;50.800;4.904;2022-11-28T02:53:42;8.50;99.90
11840;DHT22;5979;50.800;4.904;2022-11-28T02:56:11;8.40;99.90
11840;DHT22;5979;50.800;4.904;2022-11-28T02:58:37;8.40;99.90
11840;DHT22;5979;50.800;4.904;2022-11-28T03:01:05;8.40;99.90
11840;DHT22;5979;50.800;4.904;2022-11-28T03:12:37;8.40;99.90
11840;DHT22;5979;50.800;4.904;2022-11-28T03:23:02;8.40;99.90
11840;DHT22;5979;50.800;4.904;2022-11-28T03:30:54;8.40;99.90
11840;DHT22;5979;50.800;4.904;2022-11-28T03:33:24;8.40;99.90
11840;DHT22;5979;50.800;4.904;2022-11-28T03:35:57;8.40;99.90
11840;DHT22;5979;50.800;4.904;2022-11-28T03:38:31;8.40;99.90
11840;DHT22;5979;50.800;4.904;2022-11-28T03:41:02;8.40;99.90
11840;DHT22;5979;50.800;4.904;2022-11-28T03:43:37;8.40;99.90
11840;DHT22;5979;50.800;4.904;2022-11-28T03:46:09;8.50;99.90
11840;DHT22;5979;50.800;4.904;2022-11-28T03:48:44;8.40;99.90
11840;DHT22;5979;50.800;4.904;2022-11-28T03:51:15;8.40;99.90
11840;DHT22;5979;50.800;4.904;2022-11-28T03:56:18;8.40;99.90
11840;DHT22;5979;50.800;4.904;2022-11-28T03:58:53;8.40;99.90
11840;DHT22;5979;50.800;4.904;2022-11-28T04:01:43;8.40;99.90
11840;DHT22;5979;50.800;4.904;2022-11-28T04:04:18;8.40;99.90
11840;DHT22;5979;50.800;4.904;2022-11-28T04:10:01;8.40;99.90
11840;DHT22;5979;50.800;4.904;2022-11-28T04:21:04;8.40;99.90
11840;DHT22;5979;50.800;4.904;2022-11-28T04:23:34;8.40;99.90
11840;DHT22;5979;50.800;4.904;2022-11-28T04:26:10;8.30;99.90
11840;DHT22;5979;50.800;4.904;2022-11-28T04:28:38;8.40;99.90
11840;DHT22;5979;50.800;4.904;2022-11-28T04:31:05;8.30;99.90
11840;DHT22;5979;50.800;4.904;2022-11-28T04:33:36;8.40;99.90
11840;DHT22;5979;50.800;4.904;2022-11-28T04:36:04;8.40;99.90
11840;DHT22;5979;50.800;4.904;2022-11-28T04:38:32;8.30;99.90
11840;DHT22;5979;50.800;4.904;2022-11-28T04:41:15;8.30;99.90
11840;DHT22;5979;50.800;4.904;2022-11-28T04:43:49;8.30;99.90
11840;DHT22;5979;50.800;4.904;2022-11-28T04:46:22;8.30;99.90
11840;DHT22;5979;50.800;4.904;2022-11-28T04:48:49;8.40;99.90
11840;DHT22;5979;50.800;4.904;2022-11-28T04:51:26;8.30;99.90
11840;DHT22;5979;50.800;4.904;2022-11-28T04:54:44;8.30;99.90
11840;DHT22;5979;50.800;4.904;2022-11-28T04:56:51;8.30;99.90
11840;DHT22;5979;50.800;4.904;2022-11-28T04:59:17;8.30;99.90
11840;DHT22;5979;50.800;4.904;2022-11-28T05:01:45;8.30;99.90
11840;DHT22;5979;50.800;4.904;2022-11-28T05:04:12;8.30;99.90
11840;DHT22;5979;50.800;4.904;2022-11-28T05:06:38;8.30;99.90
11840;DHT22;5979;50.800;4.904;2022-11-28T05:09:04;8.30;99.90
11840;DHT22;5979;50.800;4.904;2022-11-28T05:11:30;8.40;99.90
11840;DHT22;5979;50.800;4.904;2022-11-28T05:13:56;8.30;99.90
11840;DHT22;5979;50.800;4.904;2022-11-28T05:16:22;8.30;99.90
11840;DHT22;5979;50.800;4.904;2022-11-28T05:18:48;8.30;99.90
11840;DHT22;5979;50.800;4.904;2022-11-28T05:21:14;8.30;99.90
11840;DHT22;5979;50.800;4.904;2022-11-28T05:23:42;8.30;99.90
11840;DHT22;5979;50.800;4.904;2022-11-28T05:26:19;8.40;99.90
11840;DHT22;5979;50.800;4.904;2022-11-28T05:28:49;8.30;99.90
11840;DHT22;5979;50.800;4.904;2022-11-28T05:31:19;8.30;99.90
11840;DHT22;5979;50.800;4.904;2022-11-28T05:33:45;8.30;99.90
11840;DHT22;5979;50.800;4.904;2022-11-28T05:36:12;8.30;99.90
11840;DHT22;5979;50.800;4.904;2022-11-28T05:38:39;8.40;99.90
11840;DHT22;5979;50.800;4.904;2022-11-28T05:41:05;8.30;99.90
11840;DHT22;5979;50.800;4.904;2022-11-28T05:43:31;8.30;99.90
11840;DHT22;5979;50.800;4.904;2022-11-28T05:45:57;8.30;99.90
11840;DHT22;5979;50.800;4.904;2022-11-28T05:48:23;8.30;99.90
11840;DHT22;5979;50.800;4.904;2022-11-28T05:50:48;8.30;99.90
11840;DHT22;5979;50.800;4.904;2022-11-28T05:53:16;8.30;99.90
11840;DHT22;5979;50.800;4.904;2022-11-28T05:55:42;8.30;99.90
11840;DHT22;5979;50.800;4.904;2022-11-28T05:58:08;8.30;99.90
11840;DHT22;5979;50.800;4.904;2022-11-28T06:00:34;8.30;99.90
11840;DHT22;5979;50.800;4.904;2022-11-28T06:03:00;8.30;99.90
11840;DHT22;5979;50.800;4.904;2022-11-28T06:05:26;8.30;99.90
11840;DHT22;5979;50.800;4.904;2022-11-28T06:07:52;8.30;99.90
11840;DHT22;5979;50.800;4.904;2022-11-28T06:10:18;8.40;99.90
11840;DHT22;5979;50.800;4.904;2022-11-28T06:12:44;8.40;99.90
11840;DHT22;5979;50.800;4.904;2022-11-28T06:15:09;8.40;99.90
11840;DHT22;5979;50.800;4.904;2022-11-28T06:17:35;8.40;99.90
11840;DHT22;5979;50.800;4.904;2022-11-28T06:20:01;8.40;99.90
11840;DHT22;5979;50.800;4.904;2022-11-28T06:22:26;8.40;99.90
11840;DHT22;5979;50.800;4.904;2022-11-28T06:24:52;8.40;99.90
11840;DHT22;5979;50.800;4.904;2022-11-28T06:27:18;8.40;99.90
11840;DHT22;5979;50.800;4.904;2022-11-28T06:29:43;8.40;99.90
11840;DHT22;5979;50.800;4.904;2022-11-28T06:32:09;8.40;99.90
11840;DHT22;5979;50.800;4.904;2022-11-28T06:34:34;8.40;99.90
11840;DHT22;5979;50.800;4.904;2022-11-28T06:37:00;8.40;99.90
11840;DHT22;5979;50.800;4.904;2022-11-28T06:39:26;8.40;99.90
11840;DHT22;5979;50.800;4.904;2022-11-28T06:41:51;8.40;99.90
11840;DHT22;5979;50.800;4.904;2022-11-28T06:44:17;8.50;99.90
11840;DHT22;5979;50.800;4.904;2022-11-28T06:46:43;8.50;99.90
11840;DHT22;5979;50.800;4.904;2022-11-28T06:49:12;8.50;99.90
11840;DHT22;5979;50.800;4.904;2022-11-28T06:51:39;8.40;99.90
11840;DHT22;5979;50.800;4.904;2022-11-28T06:54:06;8.50;99.90
11840;DHT22;5979;50.800;4.904;2022-11-28T06:56:32;8.40;99.90
11840;DHT22;5979;50.800;4.904;2022-11-28T06:58:59;8.40;99.90
11840;DHT22;5979;50.800;4.904;2022-11-28T07:01:27;8.50;99.90
11840;DHT22;5979;50.800;4.904;2022-11-28T07:03:53;8.50;99.90
11840;DHT22;5979;50.800;4.904;2022-11-28T07:06:20;8.50;99.90
11840;DHT22;5979;50.800;4.904;2022-11-28T07:08:46;8.50;99.90
11840;DHT22;5979;50.800;4.904;2022-11-28T07:11:21;8.50;99.90
11840;DHT22;5979;50.800;4.904;2022-11-28T07:13:48;8.60;99.90
11840;DHT22;5979;50.800;4.904;2022-11-28T07:16:23;8.50;99.90
11840;DHT22;5979;50.800;4.904;2022-11-28T07:18:49;8.60;99.90
11840;DHT22;5979;50.800;4.904;2022-11-28T07:21:15;8.60;99.90
11840;DHT22;5979;50.800;4.904;2022-11-28T07:23:42;8.60;99.90
11840;DHT22;5979;50.800;4.904;2022-11-28T07:26:10;8.60;99.90
11840;DHT22;5979;50.800;4.904;2022-11-28T07:28:36;8.60;99.90
11840;DHT22;5979;50.800;4.904;2022-11-28T07:31:11;8.60;99.90
11840;DHT22;5979;50.800;4.904;2022-11-28T07:33:38;8.60;99.90
11840;DHT22;5979;50.800;4.904;2022-11-28T07:36:10;8.60;99.90
11840;DHT22;5979;50.800;4.904;2022-11-28T07:38:36;8.60;99.90
11840;DHT22;5979;50.800;4.904;2022-11-28T07:41:07;8.70;99.90
11840;DHT22;5979;50.800;4.904;2022-11-28T07:43:33;8.60;99.90
11840;DHT22;5979;50.800;4.904;2022-11-28T07:46:01;8.70;99.90
11840;DHT22;5979;50.800;4.904;2022-11-28T07:48:27;8.70;99.90
11840;DHT22;5979;50.800;4.904;2022-11-28T07:50:53;8.60;99.90
11840;DHT22;5979;50.800;4.904;2022-11-28T07:53:19;8.70;99.90
11840;DHT22;5979;50.800;4.904;2022-11-28T07:55:44;8.70;99.90
11840;DHT22;5979;50.800;4.904;2022-11-28T07:58:10;8.70;99.90
11840;DHT22;5979;50.800;4.904;2022-11-28T08:00:36;8.70;99.90
11840;DHT22;5979;50.800;4.904;2022-11-28T08:03:01;8.70;99.90
11840;DHT22;5979;50.800;4.904;2022-11-28T08:05:27;8.70;99.90
11840;DHT22;5979;50.800;4.904;2022-11-28T08:07:53;8.70;99.90
11840;DHT22;5979;50.800;4.904;2022-11-28T08:10:19;8.60;99.90
11840;DHT22;5979;50.800;4.904;2022-11-28T08:12:45;8.60;99.90
11840;DHT22;5979;50.800;4.904;2022-11-28T08:15:10;8.60;99.90
11840;DHT22;5979;50.800;4.904;2022-11-28T08:17:36;8.60;99.90
11840;DHT22;5979;50.800;4.904;2022-11-28T08:20:02;8.60;99.90
11840;DHT22;5979;50.800;4.904;2022-11-28T08:22:28;8.70;99.90
11840;DHT22;5979;50.800;4.904;2022-11-28T08:24:53;8.70;99.90
11840;DHT22;5979;50.800;4.904;2022-11-28T08:27:19;8.70;99.90
11840;DHT22;5979;50.800;4.904;2022-11-28T08:29:45;8.70;99.90
11840;DHT22;5979;50.800;4.904;2022-11-28T08:32:10;8.70;99.90
11840;DHT22;5979;50.800;4.904;2022-11-28T08:34:36;8.80;99.90
11840;DHT22;5979;50.800;4.904;2022-11-28T08:37:01;8.80;99.90
11840;DHT22;5979;50.800;4.904;2022-11-28T08:39:27;8.80;99.90
11840;DHT22;5979;50.800;4.904;2022-11-28T08:41:53;8.90;99.90
11840;DHT22;5979;50.800;4.904;2022-11-28T08:44:24;8.90;99.90
11840;DHT22;5979;50.800;4.904;2022-11-28T08:46:51;9.00;99.90
11840;DHT22;5979;50.800;4.904;2022-11-28T08:49:16;9.00;99.90
11840;DHT22;5979;50.800;4.904;2022-11-28T08:51:43;9.00;99.90
11840;DHT22;5979;50.800;4.904;2022-11-28T08:54:08;9.10;99.90
11840;DHT22;5979;50.800;4.904;2022-11-28T08:56:34;9.10;99.90
11840;DHT22;5979;50.800;4.904;2022-11-28T08:59:00;9.10;99.90
11840;DHT22;5979;50.800;4.904;2022-11-28T09:01:26;9.10;99.90
11840;DHT22;5979;50.800;4.904;2022-11-28T09:03:53;9.20;99.90
11840;DHT22;5979;50.800;4.904;2022-11-28T09:06:20;9.20;99.90
11840;DHT22;5979;50.800;4.904;2022-11-28T09:08:47;9.30;99.90
11840;DHT22;5979;50.800;4.904;2022-11-28T09:11:14;9.20;99.90
11840;DHT22;5979;50.800;4.904;2022-11-28T09:13:42;9.30;99.90
11840;DHT22;5979;50.800;4.904;2022-11-28T09:16:08;9.30;99.90
11840;DHT22;5979;50.800;4.904;2022-11-28T09:18:34;9.40;99.90
11840;DHT22;5979;50.800;4.904;2022-11-28T09:21:02;9.40;99.90
11840;DHT22;5979;50.800;4.904;2022-11-28T09:23:29;9.40;99.90
11840;DHT22;5979;50.800;4.904;2022-11-28T09:25:55;9.50;99.90
11840;DHT22;5979;50.800;4.904;2022-11-28T09:28:22;9.60;99.90
11840;DHT22;5979;50.800;4.904;2022-11-28T09:30:47;9.60;99.90
11840;DHT22;5979;50.800;4.904;2022-11-28T09:33:13;9.60;99.90
11840;DHT22;5979;50.800;4.904;2022-11-28T09:35:39;9.70;99.90
11840;DHT22;5979;50.800;4.904;2022-11-28T09:38:05;9.70;99.90
11840;DHT22;5979;50.800;4.904;2022-11-28T09:40:36;9.70;99.90
11840;DHT22;5979;50.800;4.904;2022-11-28T09:43:10;9.70;99.90
11840;DHT22;5979;50.800;4.904;2022-11-28T09:45:37;9.70;99.90
11840;DHT22;5979;50.800;4.904;2022-11-28T09:48:24;9.80;99.90
11840;DHT22;5979;50.800;4.904;2022-11-28T09:51:13;9.80;99.90
11840;DHT22;5979;50.800;4.904;2022-11-28T09:53:51;9.80;99.90
11840;DHT22;5979;50.800;4.904;2022-11-28T09:56:21;9.80;99.90
11840;DHT22;5979;50.800;4.904;2022-11-28T09:59:00;9.80;99.90
11840;DHT22;5979;50.800;4.904;2022-11-28T10:02:30;9.80;99.90
11840;DHT22;5979;50.800;4.904;2022-11-28T10:07:35;9.80;99.90
11840;DHT22;5979;50.800;4.904;2022-11-28T10:13:43;9.90;99.90
11840;DHT22;5979;50.800;4.904;2022-11-28T10:16:19;9.90;99.90
11840;DHT22;5979;50.800;4.904;2022-11-28T10:19:04;9.90;99.90
11840;DHT22;5979;50.800;4.904;2022-11-28T10:21:37;10.00;99.90
11840;DHT22;5979;50.800;4.904;2022-11-28T10:24:11;10.00;99.90
11840;DHT22;5979;50.800;4.904;2022-11-28T10:26:57;10.10;99.90
11840;DHT22;5979;50.800;4.904;2022-11-28T10:31:57;10.20;99.90
11840;DHT22;5979;50.800;4.904;2022-11-28T10:39:49;10.30;99.90
11840;DHT22;5979;50.800;4.904;2022-11-28T10:42:34;10.40;99.90
11840;DHT22;5979;50.800;4.904;2022-11-28T10:45:17;10.40;99.90
11840;DHT22;5979;50.800;4.904;2022-11-28T11:00:44;10.50;99.90
11840;DHT22;5979;50.800;4.904;2022-11-28T11:03:16;10.50;99.90
11840;DHT22;5979;50.800;4.904;2022-11-28T11:05:42;10.60;99.90
11840;DHT22;5979;50.800;4.904;2022-11-28T11:08:24;10.60;99.90
11840;DHT22;5979;50.800;4.904;2022-11-28T11:11:04;10.70;99.90
11840;DHT22;5979;50.800;4.904;2022-11-28T11:16:19;10.70;99.90
11840;DHT22;5979;50.800;4.904;2022-11-28T11:21:23;10.70;99.90
11840;DHT22;5979;50.800;4.904;2022-11-28T11:24:15;10.80;99.90
11840;DHT22;5979;50.800;4.904;2022-11-28T11:26:45;10.80;99.90
11840;DHT22;5979;50.800;4.904;2022-11-28T11:29:29;10.80;99.90
11840;DHT22;5979;50.800;4.904;2022-11-28T11:31:57;10.80;99.90
11840;DHT22;5979;50.800;4.904;2022-11-28T11:34:36;10.80;99.90
11840;DHT22;5979;50.800;4.904;2022-11-28T11:39:52;11.00;99.90
11840;DHT22;5979;50.800;4.904;2022-11-28T11:42:29;11.10;99.90
11840;DHT22;5979;50.800;4.904;2022-11-28T11:44:56;11.20;99.90
11840;DHT22;5979;50.800;4.904;2022-11-28T11:47:43;11.20;99.90
11840;DHT22;5979;50.800;4.904;2022-11-28T11:50:20;11.40;99.90
11840;DHT22;5979;50.800;4.904;2022-11-28T11:55:54;11.50;99.90
11840;DHT22;5979;50.800;4.904;2022-11-28T11:58:27;11.60;99.90
11840;DHT22;5979;50.800;4.904;2022-11-28T12:00:56;11.60;99.90
11840;DHT22;5979;50.800;4.904;2022-11-28T12:05:58;11.70;99.90
11840;DHT22;5979;50.800;4.904;2022-11-28T12:08:39;11.80;99.90
11840;DHT22;5979;50.800;4.904;2022-11-28T12:11:13;11.90;99.90
11840;DHT22;5979;50.800;4.904;2022-11-28T12:13:41;11.90;99.90
11840;DHT22;5979;50.800;4.904;2022-11-28T12:16:18;11.90;99.90
11840;DHT22;5979;50.800;4.904;2022-11-28T12:19:02;11.90;99.90
11840;DHT22;5979;50.800;4.904;2022-11-28T12:21:55;11.90;99.90
11840;DHT22;5979;50.800;4.904;2022-11-28T12:25:32;11.90;99.90
11840;DHT22;5979;50.800;4.904;2022-11-28T12:30:18;11.80;99.90
11840;DHT22;5979;50.800;4.904;2022-11-28T12:35:42;11.70;99.90
11840;DHT22;5979;50.800;4.904;2022-11-28T12:41:13;11.60;99.90
11840;DHT22;5979;50.800;4.904;2022-11-28T12:46:58;11.60;99.90
11840;DHT22;5979;50.800;4.904;2022-11-28T12:58:21;11.60;99.90
11840;DHT22;5979;50.800;4.904;2022-11-28T13:04:43;11.50;99.90
11840;DHT22;5979;50.800;4.904;2022-11-28T13:12:02;11.50;99.90
11840;DHT22;5979;50.800;4.904;2022-11-28T13:14:46;11.60;99.90
11840;DHT22;5979;50.800;4.904;2022-11-28T13:20:05;11.70;99.90
11840;DHT22;5979;50.800;4.904;2022-11-28T13:22:43;11.70;99.90
11840;DHT22;5979;50.800;4.904;2022-11-28T13:28:15;11.70;99.90
11840;DHT22;5979;50.800;4.904;2022-11-28T13:30:48;11.70;99.90
11840;DHT22;5979;50.800;4.904;2022-11-28T13:35:57;11.60;99.90
11840;DHT22;5979;50.800;4.904;2022-11-28T13:38:52;11.50;99.90
11840;DHT22;5979;50.800;4.904;2022-11-28T13:41:33;11.40;99.90
11840;DHT22;5979;50.800;4.904;2022-11-28T13:46:43;11.30;99.90
11840;DHT22;5979;50.800;4.904;2022-11-28T13:49:21;11.30;99.90
11840;DHT22;5979;50.800;4.904;2022-11-28T13:54:44;11.20;99.90
11840;DHT22;5979;50.800;4.904;2022-11-28T14:00:05;11.10;99.90
11840;DHT22;5979;50.800;4.904;2022-11-28T14:02:33;11.10;99.90
11840;DHT22;5979;50.800;4.904;2022-11-28T14:05:00;11.10;99.90
11840;DHT22;5979;50.800;4.904;2022-11-28T14:07:31;11.00;99.90
11840;DHT22;5979;50.800;4.904;2022-11-28T14:14:01;11.10;99.90
11840;DHT22;5979;50.800;4.904;2022-11-28T14:18:43;11.00;99.90
11840;DHT22;5979;50.800;4.904;2022-11-28T14:26:37;11.00;99.90
11840;DHT22;5979;50.800;4.904;2022-11-28T14:29:06;11.00;99.90
11840;DHT22;5979;50.800;4.904;2022-11-28T14:31:44;11.00;99.90
11840;DHT22;5979;50.800;4.904;2022-11-28T14:34:45;11.00;99.90
11840;DHT22;5979;50.800;4.904;2022-11-28T14:39:50;11.00;99.90
11840;DHT22;5979;50.800;4.904;2022-11-28T14:44:48;11.00;99.90
11840;DHT22;5979;50.800;4.904;2022-11-28T14:47:28;11.00;99.90
11840;DHT22;5979;50.800;4.904;2022-11-28T14:52:31;10.90;99.90
11840;DHT22;5979;50.800;4.904;2022-11-28T14:54:59;10.80;99.90
11840;DHT22;5979;50.800;4.904;2022-11-28T14:57:31;10.90;99.90
11840;DHT22;5979;50.800;4.904;2022-11-28T15:02:46;10.80;99.90
11840;DHT22;5979;50.800;4.904;2022-11-28T15:05:13;10.80;99.90
11840;DHT22;5979;50.800;4.904;2022-11-28T15:15:46;10.80;99.90
11840;DHT22;5979;50.800;4.904;2022-11-28T15:18:13;10.80;99.90
11840;DHT22;5979;50.800;4.904;2022-11-28T15:20:47;10.80;99.90
11840;DHT22;5979;50.800;4.904;2022-11-28T15:23:23;10.80;99.90
11840;DHT22;5979;50.800;4.904;2022-11-28T15:25:54;10.80;99.90
11840;DHT22;5979;50.800;4.904;2022-11-28T15:28:21;10.80;99.90
11840;DHT22;5979;50.800;4.904;2022-11-28T15:30:50;10.80;99.90
11840;DHT22;5979;50.800;4.904;2022-11-28T15:33:17;10.70;99.90
11840;DHT22;5979;50.800;4.904;2022-11-28T15:36:23;10.70;99.90
11840;DHT22;5979;50.800;4.904;2022-11-28T15:38:50;10.70;99.90
11840;DHT22;5979;50.800;4.904;2022-11-28T15:41:23;10.70;99.90
11840;DHT22;5979;50.800;4.904;2022-11-28T15:43:49;10.70;99.90
11840;DHT22;5979;50.800;4.904;2022-11-28T15:46:30;10.70;99.90
11840;DHT22;5979;50.800;4.904;2022-11-28T15:48:56;10.70;99.90
11840;DHT22;5979;50.800;4.904;2022-11-28T15:51:30;10.70;99.90
11840;DHT22;5979;50.800;4.904;2022-11-28T15:53:57;10.70;99.90
11840;DHT22;5979;50.800;4.904;2022-11-28T15:56:23;10.70;99.90
11840;DHT22;5979;50.800;4.904;2022-11-28T15:58:50;10.70;99.90
11840;DHT22;5979;50.800;4.904;2022-11-28T16:01:24;10.70;99.90
11840;DHT22;5979;50.800;4.904;2022-11-28T16:04:06;10.70;99.90
11840;DHT22;5979;50.800;4.904;2022-11-28T16:06:36;10.60;99.90
11840;DHT22;5979;50.800;4.904;2022-11-28T16:09:05;10.70;99.90
11840;DHT22;5979;50.800;4.904;2022-11-28T16:11:33;10.60;99.90
11840;DHT22;5979;50.800;4.904;2022-11-28T16:14:05;10.70;99.90
11840;DHT22;5979;50.800;4.904;2022-11-28T16:16:33;10.60;99.90
11840;DHT22;5979;50.800;4.904;2022-11-28T16:19:05;10.60;99.90
11840;DHT22;5979;50.800;4.904;2022-11-28T16:21:43;10.60;99.90
11840;DHT22;5979;50.800;4.904;2022-11-28T16:24:31;10.60;99.90
11840;DHT22;5979;50.800;4.904;2022-11-28T16:27:03;10.60;99.90
11840;DHT22;5979;50.800;4.904;2022-11-28T16:29:31;10.60;99.90
11840;DHT22;5979;50.800;4.904;2022-11-28T16:32:22;10.60;99.90
11840;DHT22;5979;50.800;4.904;2022-11-28T16:34:53;10.50;99.90
11840;DHT22;5979;50.800;4.904;2022-11-28T16:37:24;10.50;99.90
11840;DHT22;5979;50.800;4.904;2022-11-28T16:40:21;10.50;99.90
11840;DHT22;5979;50.800;4.904;2022-11-28T16:42:54;10.50;99.90
11840;DHT22;5979;50.800;4.904;2022-11-28T16:45:30;10.50;99.90
11840;DHT22;5979;50.800;4.904;2022-11-28T16:48:09;10.50;99.90
11840;DHT22;5979;50.800;4.904;2022-11-28T16:50:49;10.50;99.90
11840;DHT22;5979;50.800;4.904;2022-11-28T16:59:14;10.50;99.90
11840;DHT22;5979;50.800;4.904;2022-11-28T17:01:41;10.50;99.90
11840;DHT22;5979;50.800;4.904;2022-11-28T17:04:28;10.40;99.90
11840;DHT22;5979;50.800;4.904;2022-11-28T17:06:59;10.40;99.90
11840;DHT22;5979;50.800;4.904;2022-11-28T17:09:30;10.40;99.90
11840;DHT22;5979;50.800;4.904;2022-11-28T17:12:09;10.30;99.90
11840;DHT22;5979;50.800;4.904;2022-11-28T17:14:38;10.30;99.90
11840;DHT22;5979;50.800;4.904;2022-11-28T17:17:15;10.20;99.90
11840;DHT22;5979;50.800;4.904;2022-11-28T17:19:41;10.20;99.90
11840;DHT22;5979;50.800;4.904;2022-11-28T17:22:12;10.10;99.90
11840;DHT22;5979;50.800;4.904;2022-11-28T17:24:38;10.10;99.90
11840;DHT22;5979;50.800;4.904;2022-11-28T17:27:04;10.00;99.90
11840;DHT22;5979;50.800;4.904;2022-11-28T17:29:32;10.00;99.90
11840;DHT22;5979;50.800;4.904;2022-11-28T17:31:58;10.00;99.90
11840;DHT22;5979;50.800;4.904;2022-11-28T17:34:28;9.90;99.90
11840;DHT22;5979;50.800;4.904;2022-11-28T17:36:58;9.90;99.90
11840;DHT22;5979;50.800;4.904;2022-11-28T17:39:24;9.80;99.90
11840;DHT22;5979;50.800;4.904;2022-11-28T17:41:52;9.80;99.90
11840;DHT22;5979;50.800;4.904;2022-11-28T17:44:20;9.80;99.90
11840;DHT22;5979;50.800;4.904;2022-11-28T17:46:47;9.80;99.90
11840;DHT22;5979;50.800;4.904;2022-11-28T17:49:13;9.70;99.90
11840;DHT22;5979;50.800;4.904;2022-11-28T17:51:39;9.70;99.90
11840;DHT22;5979;50.800;4.904;2022-11-28T17:54:05;9.70;99.90
11840;DHT22;5979;50.800;4.904;2022-11-28T17:56:31;9.70;99.90
11840;DHT22;5979;50.800;4.904;2022-11-28T17:59:00;9.60;99.90
11840;DHT22;5979;50.800;4.904;2022-11-28T18:01:28;9.70;99.90
11840;DHT22;5979;50.800;4.904;2022-11-28T18:03:54;9.60;99.90
11840;DHT22;5979;50.800;4.904;2022-11-28T18:06:21;9.60;99.90
11840;DHT22;5979;50.800;4.904;2022-11-28T18:08:48;9.60;99.90
11840;DHT22;5979;50.800;4.904;2022-11-28T18:11:15;9.60;99.90
11840;DHT22;5979;50.800;4.904;2022-11-28T18:13:42;9.50;99.90
11840;DHT22;5979;50.800;4.904;2022-11-28T18:16:12;9.40;99.90
11840;DHT22;5979;50.800;4.904;2022-11-28T18:18:39;9.40;99.90
11840;DHT22;5979;50.800;4.904;2022-11-28T18:21:05;9.40;99.90
11840;DHT22;5979;50.800;4.904;2022-11-28T18:23:33;9.40;99.90
11840;DHT22;5979;50.800;4.904;2022-11-28T18:26:03;9.30;99.90
11840;DHT22;5979;50.800;4.904;2022-11-28T18:28:29;9.30;99.90
11840;DHT22;5979;50.800;4.904;2022-11-28T18:30:55;9.30;99.90
11840;DHT22;5979;50.800;4.904;2022-11-28T18:33:20;9.20;99.90
11840;DHT22;5979;50.800;4.904;2022-11-28T18:35:46;9.20;99.90
11840;DHT22;5979;50.800;4.904;2022-11-28T18:38:12;9.20;99.90
11840;DHT22;5979;50.800;4.904;2022-11-28T18:40:37;9.20;99.90
11840;DHT22;5979;50.800;4.904;2022-11-28T18:43:03;9.10;99.90
11840;DHT22;5979;50.800;4.904;2022-11-28T18:45:30;9.20;99.90
11840;DHT22;5979;50.800;4.904;2022-11-28T18:47:55;9.20;99.90
11840;DHT22;5979;50.800;4.904;2022-11-28T18:50:21;9.20;99.90
11840;DHT22;5979;50.800;4.904;2022-11-28T18:52:47;9.10;99.90
11840;DHT22;5979;50.800;4.904;2022-11-28T18:55:13;9.20;99.90
11840;DHT22;5979;50.800;4.904;2022-11-28T18:57:40;9.20;99.90
11840;DHT22;5979;50.800;4.904;2022-11-28T19:00:06;9.20;99.90
11840;DHT22;5979;50.800;4.904;2022-11-28T19:02:32;9.20;99.90
11840;DHT22;5979;50.800;4.904;2022-11-28T19:04:58;9.10;99.90
11840;DHT22;5979;50.800;4.904;2022-11-28T19:07:24;9.10;99.90
11840;DHT22;5979;50.800;4.904;2022-11-28T19:09:50;9.10;99.90
11840;DHT22;5979;50.800;4.904;2022-11-28T19:12:16;9.00;99.90
11840;DHT22;5979;50.800;4.904;2022-11-28T19:14:43;8.90;99.90
11840;DHT22;5979;50.800;4.904;2022-11-28T19:17:09;8.90;99.90
11840;DHT22;5979;50.800;4.904;2022-11-28T19:19:37;8.90;99.90
11840;DHT22;5979;50.800;4.904;2022-11-28T19:22:05;8.90;99.90
11840;DHT22;5979;50.800;4.904;2022-11-28T19:24:31;8.80;99.90